Time;durP1;ratioP1;P1;durP2;ratioP2;P2;SDS_P1;SDS_P2;PMS_P1;PMS_P2;Temp;Humidity;BMP_temperature;BMP_pressure;BME280_temperature;BME280_humidity;BME280_pressure;Samples;Min_cycle;Max_cycle;Signal;HPM_P1;HPM_P2
2023/04/19 00:01:02;;;;;;;8.07;3.92;;;;;;;16.69;53.88;99729.78;12791891;22;98635;-78
2023/04/19 00:06:07;;;;;;;6.95;3.80;;;;;;;16.89;53.02;99735.38;12792226;22;99148;-77
2023/04/19 00:11:10;;;;;;;8.00;4.20;;;;;;;16.81;53.39;99728.91;12788979;22;99038;-78
2023/04/19 00:16:16;;;;;;;8.70;5.13;;;;;;;16.89;53.43;99732.72;12791782;22;98945;-77
2023/04/19 00:21:19;;;;;;;7.80;4.30;;;;;;;16.29;55.02;99733.59;12792835;22;98909;-77
2023/04/19 00:26:22;;;;;;;8.02;4.28;;;;;;;16.23;54.76;99736.69;12791538;22;99116;-77
2023/04/19 00:31:27;;;;;;;5.20;3.30;;;;;;;16.17;54.78;99742.44;12778865;22;99247;-77
2023/04/19 00:36:30;;;;;;;6.72;3.50;;;;;;;16.25;54.14;99743.59;12787758;22;97885;-78
2023/04/19 00:41:33;;;;;;;7.22;3.88;;;;;;;16.32;54.22;99725.41;12791642;22;99220;-78
2023/04/19 00:46:39;;;;;;;5.30;3.50;;;;;;;16.07;55.17;99726.28;12791845;22;99187;-77
2023/04/19 00:51:42;;;;;;;5.68;3.67;;;;;;;15.93;55.41;99717.63;12791551;22;98949;-78
2023/04/19 00:56:46;;;;;;;6.97;4.35;;;;;;;15.91;55.70;99717.69;12791630;22;99268;-77
2023/04/19 01:01:51;;;;;;;5.80;4.03;;;;;;;15.78;56.63;99720.38;12791243;22;98893;-77
2023/04/19 01:06:54;;;;;;;7.05;4.00;;;;;;;15.51;57.14;99722.25;12791630;22;98939;-77
2023/04/19 01:11:58;;;;;;;7.10;4.10;;;;;;;15.28;58.09;99719.47;12792365;22;99206;-77
2023/04/19 01:17:02;;;;;;;8.40;4.28;;;;;;;14.96;58.58;99716.28;12791732;22;99164;-77
2023/04/19 01:22:05;;;;;;;8.35;4.40;;;;;;;15.05;58.31;99707.72;12791134;22;99336;-77
2023/04/19 01:27:10;;;;;;;7.22;3.90;;;;;;;14.90;58.92;99706.09;12790130;22;99441;-77
2023/04/19 01:32:13;;;;;;;6.63;3.78;;;;;;;15.26;57.62;99703.66;12789940;22;97738;-77
2023/04/19 01:37:16;;;;;;;5.07;3.65;;;;;;;15.36;57.44;99715.34;12791246;22;99215;-77
2023/04/19 01:42:21;;;;;;;7.03;3.85;;;;;;;15.40;57.52;99714.19;12791294;22;99258;-77
2023/04/19 01:47:24;;;;;;;;;;;;;;;15.24;57.72;99718.78;12791808;22;99758;-78
2023/04/19 01:52:27;;;;;;;4.60;3.40;;;;;;;15.21;57.37;99713.72;12791029;22;98960;-77
2023/04/19 01:57:32;;;;;;;6.78;3.53;;;;;;;15.11;57.44;99715.25;12786803;22;99033;-77
2023/04/19 02:02:36;;;;;;;5.80;3.80;;;;;;;14.87;58.06;99710.75;12788001;22;99159;-77
2023/04/19 02:07:40;;;;;;;5.05;3.40;;;;;;;14.89;58.11;99714.16;12786763;22;98871;-77
2023/04/19 02:12:45;;;;;;;8.10;3.70;;;;;;;15.05;58.16;99710.38;12786506;22;98832;-77
2023/04/19 02:17:48;;;;;;;6.47;3.60;;;;;;;14.71;58.42;99719.66;12785293;22;99009;-77
2023/04/19 02:22:51;;;;;;;6.38;3.78;;;;;;;14.76;58.23;99719.38;12786181;22;99302;-77
2023/04/19 02:27:56;;;;;;;6.47;3.63;;;;;;;14.67;58.37;99717.31;12786181;22;98861;-77
2023/04/19 02:32:59;;;;;;;4.82;3.15;;;;;;;14.80;58.09;99724.38;12786209;22;98925;-77
2023/04/19 02:38:03;;;;;;;4.97;3.38;;;;;;;14.64;58.43;99731.59;12783388;22;99278;-77
2023/04/19 02:43:08;;;;;;;4.77;3.37;;;;;;;14.62;58.34;99716.78;12785522;22;99042;-78
2023/04/19 02:48:11;;;;;;;4.15;3.47;;;;;;;14.49;58.49;99727.28;12785310;22;99315;-77
2023/04/19 02:53:14;;;;;;;5.22;3.72;;;;;;;14.40;58.69;99719.09;12786905;22;98948;-77
2023/04/19 02:58:19;;;;;;;5.43;3.80;;;;;;;14.24;59.17;99715.72;12725066;22;1529069;-77
2023/04/19 03:03:22;;;;;;;6.78;4.05;;;;;;;13.72;61.26;99711.91;12790078;22;99252;-77
2023/04/19 03:08:25;;;;;;;6.22;3.20;;;;;;;13.50;61.15;99715.84;12786671;22;97831;-76
2023/04/19 03:13:30;;;;;;;7.85;3.75;;;;;;;13.54;61.51;99720.03;12790209;22;98871;-77
2023/04/19 03:18:33;;;;;;;6.45;4.13;;;;;;;13.52;61.10;99713.97;12789253;22;98833;-77
2023/04/19 03:23:37;;;;;;;5.30;3.38;;;;;;;13.39;62.07;99715.66;12790218;22;98885;-76
2023/04/19 03:28:41;;;;;;;4.85;3.30;;;;;;;13.42;61.73;99712.84;12789665;22;98987;-76
2023/04/19 03:33:44;;;;;;;7.15;3.30;;;;;;;13.31;62.19;99722.34;12789475;22;98806;-76
2023/04/19 03:38:48;;;;;;;4.85;3.03;;;;;;;13.13;62.16;99724.28;12789937;22;98740;-76
2023/04/19 03:43:52;;;;;;;4.63;3.50;;;;;;;13.05;62.63;99723.84;12790798;22;98850;-76
2023/04/19 03:48:55;;;;;;;5.13;3.78;;;;;;;12.93;62.30;99729.84;12789498;22;97814;-76
2023/04/19 03:53:58;;;;;;;5.50;3.35;;;;;;;12.90;63.01;99723.88;12789119;22;99166;-77
2023/04/19 03:59:03;;;;;;;5.25;3.63;;;;;;;12.91;62.51;99722.97;12788321;22;98918;-77
2023/04/19 04:04:06;;;;;;;5.22;3.78;;;;;;;12.81;63.01;99730.53;12789339;22;99057;-76
2023/04/19 04:09:09;;;;;;;9.10;3.22;;;;;;;12.68;62.91;99726.91;12789117;22;99107;-76
2023/04/19 04:14:14;;;;;;;4.78;3.85;;;;;;;12.51;64.53;99729.59;12789033;22;99116;-76
2023/04/19 04:19:20;;;;;;;5.38;4.05;;;;;;;12.29;64.50;99724.66;12790338;22;99112;-76
2023/04/19 04:24:23;;;;;;;6.07;3.60;;;;;;;12.30;64.07;99721.09;12790824;22;99292;-76
2023/04/19 04:29:28;;;;;;;4.60;3.55;;;;;;;12.20;64.94;99730.44;12779719;22;99168;-76
2023/04/19 04:34:31;;;;;;;7.38;3.63;;;;;;;12.11;64.93;99732.72;12793066;22;98869;-76
2023/04/19 04:39:38;;;;;;;5.57;3.30;;;;;;;12.13;64.40;99736.13;12791827;22;98721;-76
2023/04/19 04:44:43;;;;;;;4.47;3.10;;;;;;;12.01;64.96;99735.00;12791456;22;99209;-76
2023/04/19 04:49:47;;;;;;;6.00;3.58;;;;;;;11.98;65.53;99735.16;12790483;22;99232;-76
2023/04/19 04:54:50;;;;;;;4.68;3.35;;;;;;;11.98;66.15;99739.56;12791378;22;98864;-76
2023/04/19 04:59:55;;;;;;;7.03;3.65;;;;;;;11.89;66.27;99743.56;12791600;22;99191;-75
2023/04/19 05:04:58;;;;;;;4.60;3.63;;;;;;;11.82;65.92;99755.34;12791681;22;99061;-76
2023/04/19 05:10:01;;;;;;;4.32;3.55;;;;;;;11.79;66.11;99755.53;12791619;22;98981;-77
2023/04/19 05:15:07;;;;;;;4.15;3.75;;;;;;;11.66;66.99;99754.47;12791804;22;98859;-76
2023/04/19 05:20:11;;;;;;;7.20;4.00;;;;;;;11.61;67.43;99758.28;12791445;22;98611;-76
2023/04/19 05:25:14;;;;;;;4.93;3.38;;;;;;;11.54;67.93;99757.75;12792274;22;99033;-76
2023/04/19 05:30:19;;;;;;;4.45;3.50;;;;;;;11.50;68.80;99765.88;12790757;22;98924;-76
2023/04/19 05:35:22;;;;;;;6.43;3.17;;;;;;;11.49;68.88;99764.16;12790729;22;99270;-76
2023/04/19 05:40:25;;;;;;;6.15;3.53;;;;;;;11.45;68.38;99770.50;12748741;22;99404;-76
2023/04/19 05:45:30;;;;;;;4.55;3.50;;;;;;;11.42;68.96;99776.81;12790895;22;96818;-76
2023/04/19 05:50:33;;;;;;;4.72;3.67;;;;;;;11.28;69.34;99771.38;12791236;22;98792;-76
2023/04/19 05:55:36;;;;;;;5.78;3.40;;;;;;;11.16;69.69;99775.44;12791082;22;97962;-77
2023/04/19 06:00:41;;;;;;;5.53;3.90;;;;;;;11.15;68.63;99778.16;12791146;22;98931;-76
2023/04/19 06:05:44;;;;;;;5.78;3.65;;;;;;;11.18;68.56;99791.22;12791472;22;99199;-76
2023/04/19 06:10:48;;;;;;;6.25;3.72;;;;;;;11.22;68.89;99783.06;12790268;22;97788;-77
2023/04/19 06:16:01;;;;;;;4.90;3.38;;;;;;;11.27;69.08;99790.72;12792734;22;99007;-76
2023/04/19 06:21:05;;;;;;;5.47;3.47;;;;;;;11.37;68.32;99792.81;12790877;22;98953;-77
2023/04/19 06:26:08;;;;;;;4.47;2.85;;;;;;;11.85;68.23;99796.53;12789962;22;98118;-76
2023/04/19 06:31:12;;;;;;;3.92;3.25;;;;;;;12.50;66.39;99800.00;12786571;22;99049;-77
2023/04/19 06:36:16;;;;;;;3.95;3.03;;;;;;;13.04;65.05;99800.53;12791774;22;98762;-76
2023/04/19 06:41:19;;;;;;;3.55;2.90;;;;;;;13.32;64.20;99798.88;12790073;22;98938;-76
2023/04/19 06:46:24;;;;;;;4.35;2.97;;;;;;;13.74;63.32;99806.09;12790478;22;98824;-76
2023/04/19 06:51:27;;;;;;;6.57;3.17;;;;;;;13.98;62.09;99815.19;12789702;22;99113;-77
2023/04/19 06:56:44;;;;;;;3.72;2.90;;;;;;;14.47;60.12;99819.19;12790076;22;99366;-76
2023/04/19 07:01:48;;;;;;;4.10;2.53;;;;;;;14.62;60.27;99822.69;12790136;22;98967;-76
2023/04/19 07:06:52;;;;;;;5.68;3.10;;;;;;;15.35;58.14;99821.50;12791264;22;98915;-76
2023/04/19 07:11:56;;;;;;;3.47;2.47;;;;;;;16.20;55.85;99832.47;12790067;22;98977;-77
2023/04/19 07:17:00;;;;;;;4.47;2.40;;;;;;;16.69;54.87;99830.75;12790148;22;98863;-77
2023/04/19 07:22:05;;;;;;;;;;;;;;;17.18;53.30;99825.41;12789194;22;98825;-77
2023/04/19 07:27:08;;;;;;;4.90;2.60;;;;;;;17.87;51.73;99828.16;12790164;22;98868;-77
2023/04/19 07:32:14;;;;;;;3.45;2.40;;;;;;;18.44;50.57;99820.13;12787424;22;99206;-78
2023/04/19 07:37:17;;;;;;;4.47;2.78;;;;;;;18.33;49.83;99821.00;12789979;22;98967;-77
2023/04/19 07:42:20;;;;;;;4.43;2.35;;;;;;;18.62;49.01;99816.91;12789064;22;99512;-77
2023/04/19 07:47:25;;;;;;;4.72;2.70;;;;;;;19.07;47.76;99815.03;12789420;22;97849;-77
2023/04/19 07:52:28;;;;;;;5.18;2.80;;;;;;;19.70;46.79;99825.75;12789418;22;98822;-78
2023/04/19 07:57:32;;;;;;;4.10;2.28;;;;;;;20.53;44.46;99825.78;12792889;22;98821;-78
2023/04/19 08:02:37;;;;;;;4.05;2.50;;;;;;;20.80;43.66;99812.63;12792696;22;98891;-78
2023/04/19 08:07:40;;;;;;;5.22;2.60;;;;;;;21.32;42.34;99815.06;12791958;22;99262;-78
2023/04/19 08:12:43;;;;;;;5.30;2.70;;;;;;;22.51;38.81;99814.53;12790654;22;98715;-78
2023/04/19 08:18:08;;;;;;;4.35;2.40;;;;;;;22.33;38.01;99809.06;12790963;22;99000;-77
2023/04/19 08:23:11;;;;;;;3.03;2.28;;;;;;;23.89;36.51;99812.44;12791657;22;98872;-78
2023/04/19 08:28:27;;;;;;;4.20;2.38;;;;;;;23.94;35.93;99810.97;12791050;22;99013;-77
2023/04/19 08:33:32;;;;;;;3.17;2.37;;;;;;;;;;12791678;22;98803;-77
2023/04/19 08:38:37;;;;;;;5.20;2.60;;;;;;;24.56;34.08;99818.84;12792158;22;97341;-78
2023/04/19 08:43:43;;;;;;;3.00;2.38;;;;;;;24.71;34.05;99819.91;12791949;22;99014;-78
2023/04/19 08:48:50;;;;;;;4.03;2.22;;;;;;;24.90;33.50;99812.59;12791245;22;98955;-78
2023/04/19 08:53:56;;;;;;;4.35;2.50;;;;;;;25.29;33.27;99811.94;12791272;22;98863;-78
2023/04/19 08:58:59;;;;;;;4.20;2.38;;;;;;;25.83;32.35;99813.22;12791490;22;99063;-78
2023/04/19 09:04:23;;;;;;;5.15;2.40;;;;;;;25.95;31.60;99813.72;12789958;22;98647;-78
2023/04/19 09:09:41;;;;;;;4.03;2.58;;;;;;;25.71;33.07;99819.97;12791327;22;98807;-78
2023/04/19 09:15:03;;;;;;;4.15;2.25;;;;;;;25.86;31.50;99804.78;12791205;22;98997;-78
2023/04/19 09:20:08;;;;;;;4.95;2.63;;;;;;;26.21;31.13;99817.06;12791024;22;98919;-79
2023/04/19 09:25:24;;;;;;;4.05;2.35;;;;;;;26.18;31.07;99826.34;12791297;22;99150;-78
2023/04/19 09:30:48;;;;;;;5.78;2.30;;;;;;;26.61;31.06;99823.25;12789612;22;101328;-78
2023/04/19 09:36:27;;;;;;;4.43;2.27;;;;;;;26.04;31.76;99829.72;12790971;22;100151;-79
2023/04/19 09:41:32;;;;;;;2.30;2.00;;;;;;;26.38;31.70;99819.63;12792090;22;98955;-78
2023/04/19 09:46:39;;;;;;;4.65;2.10;;;;;;;27.55;29.43;99828.59;12791117;22;98864;-78
2023/04/19 09:51:45;;;;;;;3.33;2.22;;;;;;;27.20;30.42;99843.47;12790684;22;98935;-78
2023/04/19 09:56:48;;;;;;;3.05;2.30;;;;;;;27.60;29.36;99829.75;12789641;22;98989;-78
2023/04/19 10:01:55;;;;;;;4.50;2.13;;;;;;;27.65;28.76;99829.22;12791009;22;98897;-78
2023/04/19 10:07:00;;;;;;;4.28;2.30;;;;;;;27.84;29.19;99836.88;12788208;22;98921;-78
2023/04/19 10:12:07;;;;;;;3.28;2.15;;;;;;;27.88;28.94;99828.22;12790702;22;98526;-78
2023/04/19 10:17:30;;;;;;;4.28;2.30;;;;;;;27.63;28.65;99831.25;12789589;22;100233;-78
2023/04/19 10:22:37;;;;;;;;;;;;;;;27.68;29.49;99828.88;12790778;22;98860;-78
2023/04/19 10:27:44;;;;;;;4.32;2.50;;;;;;;27.60;28.84;99828.88;12790985;22;99378;-78
2023/04/19 10:32:54;;;;;;;8.00;2.00;;;;;;;27.30;29.09;99825.22;12791365;22;99403;-78
2023/04/19 10:38:08;;;;;;;2.80;2.05;;;;;;;28.05;27.90;99812.69;12790528;22;99278;-78
2023/04/19 10:43:18;;;;;;;3.23;2.03;;;;;;;27.40;28.35;99814.16;12790384;22;99160;-78
2023/04/19 10:48:42;;;;;;;2.53;1.88;;;;;;;29.15;26.22;99810.84;12786467;22;98997;-78
2023/04/19 10:53:50;;;;;;;3.47;2.00;;;;;;;28.19;26.81;99800.25;12790335;22;98887;-78
2023/04/19 10:59:21;;;;;;;2.55;2.25;;;;;;;27.40;28.13;99789.84;12790262;22;99228;-78
2023/04/19 11:05:10;;;;;;;3.85;2.00;;;;;;;27.52;29.57;99800.06;12790098;22;98900;-78
2023/04/19 11:10:28;;;;;;;2.67;2.03;;;;;;;28.17;26.69;99792.28;12790009;22;99144;-78
2023/04/19 11:15:31;;;;;;;3.90;1.88;;;;;;;28.54;27.52;99794.13;12789758;22;99219;-78
2023/04/19 11:20:34;;;;;;;3.07;1.63;;;;;;;28.98;26.19;99784.97;12789930;22;98784;-78
2023/04/19 11:25:39;;;;;;;2.63;2.00;;;;;;;28.40;26.24;99776.84;12790968;22;98867;-78
2023/04/19 11:30:43;;;;;;;2.85;1.75;;;;;;;27.89;24.99;99777.69;12789652;22;99169;-78
2023/04/19 11:35:46;;;;;;;;;;;;;;;27.66;27.43;99774.97;12793609;22;98905;-78
2023/04/19 11:40:58;;;;;;;5.63;2.17;;;;;;;27.71;25.92;99775.28;12791371;22;98773;-78
2023/04/19 11:46:06;;;;;;;5.43;2.10;;;;;;;27.65;25.19;99769.75;12792589;22;99119;-78
2023/04/19 11:51:10;;;;;;;4.68;2.38;;;;;;;27.59;25.38;99771.28;12791822;22;98808;-78
2023/04/19 11:56:15;;;;;;;4.95;2.30;;;;;;;27.09;26.63;99762.00;12792271;22;98130;-78
2023/04/19 12:01:19;;;;;;;3.25;2.10;;;;;;;27.23;26.91;99758.53;12791972;22;98916;-78
2023/04/19 12:06:24;;;;;;;6.05;2.22;;;;;;;26.93;27.76;99750.25;12792206;22;99019;-78
2023/04/19 12:11:44;;;;;;;4.63;2.13;;;;;;;26.57;27.92;99750.91;12792098;22;99159;-78
2023/04/19 12:17:02;;;;;;;4.53;2.00;;;;;;;26.56;28.59;99754.59;12793288;22;98966;-78
2023/04/19 12:22:14;;;;;;;5.22;2.50;;;;;;;26.36;28.99;99742.50;12791995;22;98983;-78
2023/04/19 12:27:19;;;;;;;4.60;2.50;;;;;;;26.42;28.37;99755.34;12790769;22;99048;-78
2023/04/19 12:32:22;;;;;;;2.83;2.25;;;;;;;26.31;29.05;99750.28;12790148;22;98964;-77
2023/04/19 12:37:26;;;;;;;5.00;2.25;;;;;;;26.19;29.03;99746.25;12791627;22;99457;-78
2023/04/19 12:42:30;;;;;;;3.97;2.00;;;;;;;26.27;29.79;99739.00;12792085;22;98852;-78
2023/04/19 12:47:33;;;;;;;3.88;2.58;;;;;;;26.32;30.54;99742.00;12791902;22;98893;-78
2023/04/19 12:52:37;;;;;;;6.70;2.80;;;;;;;25.99;30.35;99734.19;12790591;22;98978;-78
2023/04/19 12:57:42;;;;;;;5.37;2.70;;;;;;;26.14;29.50;99741.41;12791408;22;99027;-78
2023/04/19 13:02:47;;;;;;;4.43;2.40;;;;;;;26.33;29.88;99730.22;12791421;22;98897;-78
2023/04/19 13:07:50;;;;;;;5.63;2.42;;;;;;;26.51;30.16;99738.09;12791115;22;99318;-78
2023/04/19 13:12:55;;;;;;;3.20;2.43;;;;;;;26.42;29.44;99745.38;12791046;22;99079;-78
2023/04/19 13:17:58;;;;;;;4.45;2.20;;;;;;;26.45;29.49;99731.56;12791318;22;99187;-78
2023/04/19 13:23:01;;;;;;;6.50;2.50;;;;;;;26.65;28.99;99751.72;12789615;22;98927;-78
2023/04/19 13:28:06;;;;;;;3.30;2.00;;;;;;;26.64;29.50;99738.41;12791342;22;98829;-78
2023/04/19 13:33:10;;;;;;;4.78;2.53;;;;;;;26.48;28.95;99747.41;12790008;22;100056;-78
2023/04/19 13:38:13;;;;;;;3.50;2.27;;;;;;;26.52;29.52;99737.09;12791454;22;98879;-78
2023/04/19 13:43:18;;;;;;;4.27;2.67;;;;;;;26.41;30.05;99735.63;12789696;22;98188;-78
2023/04/19 13:48:21;;;;;;;5.13;2.40;;;;;;;26.54;30.32;99740.47;12790580;22;98031;-78
2023/04/19 13:53:27;;;;;;;3.87;2.30;;;;;;;26.54;30.59;99738.59;12790016;22;99029;-78
2023/04/19 13:58:32;;;;;;;4.75;2.38;;;;;;;26.90;31.66;99734.38;12792308;22;99162;-78
2023/04/19 14:03:35;;;;;;;5.28;2.42;;;;;;;26.73;31.79;99732.78;12790191;22;99020;-78
2023/04/19 14:08:39;;;;;;;5.20;2.47;;;;;;;26.62;31.58;99740.41;12791118;22;98945;-78
2023/04/19 14:13:44;;;;;;;5.87;2.80;;;;;;;26.71;31.97;99737.53;12789902;22;99120;-78
2023/04/19 14:18:47;;;;;;;5.30;2.50;;;;;;;26.87;33.22;99731.22;12790685;22;98979;-77
2023/04/19 14:23:50;;;;;;;4.53;2.40;;;;;;;26.63;32.55;99737.53;12790493;22;99372;-78
2023/04/19 14:28:54;;;;;;;6.10;2.60;;;;;;;26.29;31.46;99733.41;12790321;22;99005;-78
2023/04/19 14:33:58;;;;;;;4.63;2.20;;;;;;;26.40;32.24;99735.78;12790256;22;99417;-78
2023/04/19 14:39:01;;;;;;;;;;;;;;;26.28;32.62;99732.56;12791164;22;98982;-78
2023/04/19 14:44:06;;;;;;;5.25;2.50;;;;;;;26.55;33.18;99734.03;12790707;22;98874;-78
2023/04/19 14:49:09;;;;;;;8.52;2.63;;;;;;;26.46;32.25;99726.97;12790938;22;99314;-78
2023/04/19 14:54:12;;;;;;;6.47;2.93;;;;;;;26.33;33.60;99732.06;12790045;22;99233;-78
2023/04/19 14:59:17;;;;;;;7.17;3.40;;;;;;;26.38;34.21;99738.66;12790223;22;99073;-78
2023/04/19 15:04:20;;;;;;;5.82;2.75;;;;;;;26.47;35.06;99732.19;12788725;22;98879;-78
2023/04/19 15:09:23;;;;;;;5.50;2.75;;;;;;;26.82;35.24;99733.56;12790459;22;99255;-79
2023/04/19 15:14:28;;;;;;;5.00;2.43;;;;;;;26.55;34.41;99734.03;12788594;22;98969;-78
2023/04/19 15:19:31;;;;;;;10.95;3.08;;;;;;;26.56;34.44;99733.00;12789852;22;99154;-78
2023/04/19 15:24:35;;;;;;;5.75;2.63;;;;;;;26.34;34.53;99739.13;12789884;22;98990;-77
2023/04/19 15:29:40;;;;;;;8.52;2.92;;;;;;;26.31;34.85;99740.34;12789174;22;98834;-78
2023/04/19 15:34:43;;;;;;;4.60;2.00;;;;;;;26.35;34.67;99743.53;12789269;22;98822;-78
2023/04/19 15:39:48;;;;;;;7.10;2.70;;;;;;;26.11;36.27;99741.72;12790599;22;99018;-78
2023/04/19 15:44:52;;;;;;;5.97;2.38;;;;;;;25.95;36.89;99740.91;12789654;22;98906;-78
2023/04/19 15:49:56;;;;;;;5.57;2.30;;;;;;;25.92;37.17;99752.06;12789343;22;99205;-79
2023/04/19 15:54:59;;;;;;;5.23;1.90;;;;;;;25.69;36.72;99750.00;12787998;22;98796;-78
2023/04/19 16:00:08;;;;;;;6.17;2.30;;;;;;;25.64;36.42;99755.03;12789287;22;99429;-78
2023/04/19 16:05:11;;;;;;;5.45;2.20;;;;;;;25.43;37.08;99749.28;12788963;22;98925;-78
2023/04/19 16:10:15;;;;;;;5.13;1.90;;;;;;;25.10;37.63;99747.59;12788173;22;98903;-78
2023/04/19 16:15:19;;;;;;;5.80;2.00;;;;;;;24.78;36.82;99756.38;12790463;22;99002;-78
2023/04/19 16:20:22;;;;;;;3.20;1.95;;;;;;;24.74;34.98;99763.06;12791726;22;99295;-78
2023/04/19 16:25:26;;;;;;;2.57;1.50;;;;;;;24.62;32.57;99764.38;12792051;22;99368;-78
2023/04/19 16:30:30;;;;;;;4.33;0.80;;;;;;;24.45;29.77;99772.50;12792464;22;99178;-78
2023/04/19 16:35:33;;;;;;;2.55;1.27;;;;;;;24.41;30.65;99780.06;12791283;22;97308;-79
2023/04/19 16:40:36;;;;;;;3.93;1.40;;;;;;;24.38;31.21;99790.28;12791687;22;98821;-78
2023/04/19 16:45:42;;;;;;;4.38;1.20;;;;;;;24.28;30.10;99781.50;12790527;22;98995;-78
2023/04/19 16:50:45;;;;;;;3.95;1.58;;;;;;;24.20;30.95;99781.44;12791480;22;98958;-78
2023/04/19 16:55:48;;;;;;;6.80;1.80;;;;;;;24.21;31.46;99791.16;12790592;22;99183;-78
2023/04/19 17:00:53;;;;;;;5.73;2.50;;;;;;;24.15;32.10;99787.25;12791312;22;98784;-78
2023/04/19 17:05:56;;;;;;;3.42;1.80;;;;;;;23.97;31.66;99794.53;12791489;22;98988;-77
2023/04/19 17:10:59;;;;;;;3.53;1.75;;;;;;;23.96;31.36;99789.31;12788749;22;99108;-78
2023/04/19 17:16:04;;;;;;;4.72;2.08;;;;;;;23.87;33.18;99791.09;12791266;22;99044;-78
2023/04/19 17:21:08;;;;;;;4.13;1.60;;;;;;;23.84;33.02;99795.94;12792457;22;99001;-78
2023/04/19 17:26:11;;;;;;;4.22;2.13;;;;;;;23.90;33.19;99798.00;12791050;22;99003;-78
2023/04/19 17:31:15;;;;;;;5.18;2.00;;;;;;;23.89;34.32;99802.56;12790524;22;99230;-78
2023/04/19 17:36:18;;;;;;;5.63;3.33;;;;;;;23.87;34.23;99798.31;12789678;22;98868;-79
2023/04/19 17:41:22;;;;;;;5.45;2.40;;;;;;;23.65;35.40;99810.38;12790110;22;98924;-78
2023/04/19 17:46:26;;;;;;;3.40;2.22;;;;;;;23.69;35.86;99801.00;12791162;22;98860;-79
2023/04/19 17:51:29;;;;;;;4.30;2.35;;;;;;;23.58;36.22;99804.78;12791065;22;98975;-78
2023/04/19 17:56:32;;;;;;;4.43;2.03;;;;;;;23.61;36.65;99804.47;12790889;22;99075;-78
2023/04/19 18:01:37;;;;;;;5.45;2.30;;;;;;;23.62;37.65;99810.69;12790283;22;98008;-78
2023/04/19 18:06:40;;;;;;;6.57;2.60;;;;;;;23.53;38.27;99812.41;12791084;22;98870;-78
2023/04/19 18:11:43;;;;;;;3.95;2.00;;;;;;;23.43;38.75;99810.81;12790904;22;99458;-77
2023/04/19 18:16:48;;;;;;;5.95;1.90;;;;;;;23.21;39.58;99806.72;12790805;22;99161;-78
2023/04/19 18:21:51;;;;;;;5.32;1.88;;;;;;;22.97;40.54;99800.22;12789769;22;97812;-78
2023/04/19 18:26:54;;;;;;;5.68;2.03;;;;;;;22.64;42.03;99801.66;12787096;22;99384;-79
2023/04/19 18:31:59;;;;;;;5.63;2.17;;;;;;;22.48;43.08;99806.78;12790306;22;98867;-78
2023/04/19 18:37:03;;;;;;;3.60;2.08;;;;;;;22.40;43.04;99804.00;12790063;22;98952;-78
2023/04/19 18:42:07;;;;;;;4.82;2.13;;;;;;;22.30;43.51;99813.88;12790736;22;99210;-78
2023/04/19 18:47:11;;;;;;;5.78;2.17;;;;;;;22.09;44.21;99808.72;12790451;22;99022;-78
2023/04/19 18:52:16;;;;;;;7.18;2.00;;;;;;;21.84;44.95;99822.69;12790170;22;98875;-78
2023/04/19 18:57:19;;;;;;;7.18;2.30;;;;;;;21.60;46.04;99830.31;12790153;22;98837;-78
2023/04/19 19:02:30;;;;;;;5.63;2.63;;;;;;;21.48;46.53;99836.78;12791122;22;99448;-78
2023/04/19 19:07:33;;;;;;;4.30;2.35;;;;;;;21.15;47.70;99845.13;12788982;22;99108;-78
2023/04/19 19:12:39;;;;;;;4.68;2.28;;;;;;;20.98;48.51;99859.19;12787867;22;99035;-78
2023/04/19 19:17:44;;;;;;;4.78;2.45;;;;;;;20.80;49.44;99867.00;12789012;22;98746;-78
2023/04/19 19:22:52;;;;;;;4.82;2.42;;;;;;;20.66;49.10;99874.50;12790259;22;99054;-78
2023/04/19 19:27:58;;;;;;;;;;;;;;;20.38;49.43;99875.22;12790588;22;99428;-78
2023/04/19 19:33:11;;;;;;;6.65;2.90;;;;;;;20.41;48.47;99872.28;12790151;22;98938;-78
2023/04/19 19:38:15;;;;;;;4.18;2.40;;;;;;;20.31;48.22;99875.72;12789962;22;98801;-78
2023/04/19 19:43:19;;;;;;;5.60;2.77;;;;;;;20.22;49.59;99884.50;12789440;22;99258;-78
2023/04/19 19:48:24;;;;;;;6.05;2.63;;;;;;;20.05;50.97;99900.25;12790002;22;99521;-78
2023/04/19 19:53:27;;;;;;;6.63;3.05;;;;;;;19.88;51.40;99906.16;12791013;22;99151;-78
2023/04/19 19:58:31;;;;;;;6.57;3.20;;;;;;;19.77;51.52;99915.06;12791441;22;97895;-78
2023/04/19 20:03:54;;;;;;;5.30;3.05;;;;;;;19.66;51.81;99925.78;12791079;22;99167;-78
2023/04/19 20:08:58;;;;;;;7.18;3.50;;;;;;;19.61;51.81;99937.81;12791112;22;99326;-78
2023/04/19 20:14:01;;;;;;;7.90;3.40;;;;;;;19.53;51.27;99941.09;12791639;22;99053;-78
2023/04/19 20:19:08;;;;;;;4.45;3.15;;;;;;;19.34;51.58;99956.03;12791280;22;97777;-78
2023/04/19 20:24:12;;;;;;;6.85;3.58;;;;;;;19.07;52.81;99975.06;12791682;22;99211;-78
2023/04/19 20:29:15;;;;;;;9.25;4.57;;;;;;;19.10;53.24;99981.00;12791635;22;98838;-78
2023/04/19 20:34:20;;;;;;;15.07;5.00;;;;;;;19.07;53.51;99999.94;12791491;22;98872;-78
2023/04/19 20:39:24;;;;;;;14.45;5.97;;;;;;;19.11;54.62;99993.34;12791558;22;98997;-78
2023/04/19 20:44:27;;;;;;;14.00;6.05;;;;;;;19.08;55.30;100009.59;12792432;22;98903;-78
2023/04/19 20:49:32;;;;;;;11.77;5.80;;;;;;;19.02;56.36;100007.44;12791879;22;98952;-78
2023/04/19 20:54:35;;;;;;;;;;;;;;;18.79;57.98;100018.16;12789067;22;99039;-78
2023/04/19 20:59:39;;;;;;;11.10;5.40;;;;;;;18.85;56.73;100039.03;12789827;22;99150;-78
2023/04/19 21:04:44;;;;;;;13.68;6.25;;;;;;;18.65;58.17;100031.69;12790209;22;98971;-78
2023/04/19 21:09:47;;;;;;;;;;;;;;;18.22;61.93;100036.72;12791182;22;97830;-78
2023/04/19 21:14:51;;;;;;;16.38;6.65;;;;;;;18.35;60.48;100044.66;12791895;22;98847;-78
2023/04/19 21:19:56;;;;;;;15.38;7.28;;;;;;;18.41;60.37;100062.84;12790691;22;99260;-78
2023/04/19 21:24:59;;;;;;;;;;;;;;;18.37;61.20;100066.72;12792027;22;99226;-78
2023/04/19 21:30:02;;;;;;;15.32;7.30;;;;;;;18.32;60.41;100084.81;12791783;22;98942;-78
2023/04/19 21:35:08;;;;;;;20.60;8.43;;;;;;;18.11;62.34;100087.25;12792378;22;99139;-78
2023/04/19 21:40:12;;;;;;;19.60;7.97;;;;;;;17.85;64.27;100075.84;12790085;22;97827;-78
2023/04/19 21:45:15;;;;;;;17.55;7.78;;;;;;;17.86;64.63;100079.34;12790661;22;99133;-78
2023/04/19 21:50:20;;;;;;;18.60;8.32;;;;;;;17.94;63.92;100098.28;12788856;22;99086;-78
2023/04/19 21:55:24;;;;;;;20.05;8.23;;;;;;;17.94;64.25;100092.94;12789962;22;98820;-78
2023/04/19 22:00:27;;;;;;;16.25;8.25;;;;;;;17.79;64.45;100088.75;12790293;22;99004;-78
2023/04/19 22:05:32;;;;;;;26.17;8.57;;;;;;;17.74;64.91;100085.56;12790913;22;99393;-78
2023/04/19 22:10:35;;;;;;;24.10;9.27;;;;;;;17.72;64.83;100074.16;12787933;22;97909;-78
2023/04/19 22:15:38;;;;;;;18.05;8.43;;;;;;;17.58;65.17;100069.84;12789237;22;99010;-78
2023/04/19 22:20:43;;;;;;;23.45;8.95;;;;;;;17.62;65.52;100075.78;12791042;22;99495;-78
2023/04/19 22:25:47;;;;;;;21.52;8.45;;;;;;;17.54;65.70;100078.97;12791113;22;99892;-78
2023/04/19 22:30:51;;;;;;;20.90;8.35;;;;;;;17.47;65.93;100066.22;12790369;22;98902;-78
2023/04/19 22:35:56;;;;;;;15.90;8.67;;;;;;;17.46;66.19;100064.50;12790533;22;99144;-78
2023/04/19 22:40:59;;;;;;;21.58;8.68;;;;;;;17.51;65.47;100041.97;12789213;22;99353;-78
2023/04/19 22:46:03;;;;;;;23.10;9.15;;;;;;;17.36;65.31;100048.34;12790464;22;97911;-78
2023/04/19 22:51:08;;;;;;;21.48;9.13;;;;;;;17.18;66.27;100040.78;12789815;22;98997;-78
2023/04/19 22:56:11;;;;;;;16.88;7.75;;;;;;;17.08;66.26;100040.59;12790171;22;99132;-78
2023/04/19 23:01:14;;;;;;;12.45;7.53;;;;;;;17.05;65.82;100032.84;12788021;22;99031;-78
2023/04/19 23:06:19;;;;;;;18.98;8.07;;;;;;;16.71;66.87;100041.41;12790277;22;98926;-78
2023/04/19 23:11:23;;;;;;;23.58;8.82;;;;;;;16.52;66.81;100054.22;12790383;22;99464;-78
2023/04/19 23:16:27;;;;;;;19.30;9.48;;;;;;;16.52;67.08;100062.19;12790864;22;99070;-78
2023/04/19 23:21:32;;;;;;;19.08;9.40;;;;;;;16.52;67.98;100071.03;12789948;22;98862;-78
2023/04/19 23:26:35;;;;;;;24.08;10.93;;;;;;;16.42;68.39;100079.69;12789863;22;99355;-78
2023/04/19 23:31:38;;;;;;;21.58;10.00;;;;;;;16.49;68.25;100083.66;12788497;22;99338;-78
2023/04/19 23:36:43;;;;;;;18.30;8.70;;;;;;;16.68;67.01;100077.03;12789498;22;99303;-78
2023/04/19 23:41:46;;;;;;;18.20;8.50;;;;;;;16.58;67.34;100080.41;12789670;22;98957;-78